This is the latest recevied weather packets stored in our database for station/object N1TKS. If no packets are shown the sender has not sent any weather packets the latest 10 day(s).
| Time | Temp. | Humidity | Pressure | Rain* | Wind** | Luminosity | Snow |
|---|---|---|---|---|---|---|---|
| 1788619936 | 24.44° C | 63% | 1010.8 hPa | 0 mm | - | - | - |
| 1788619638 | 24.44° C | 63% | 1010.8 hPa | 0 mm | - | - | - |
| 1788619340 | 24.44° C | 63% | 1010.7 hPa | 0 mm | - | - | - |
| 1788619308 | 24.44° C | 65% | 1010.7 hPa | 0 mm | - | - | - |
| 1788619038 | 24.44° C | 65% | 1010.6 hPa | 0 mm | - | - | - |
| 1788618738 | 24.44° C | 64% | 1010.7 hPa | 0 mm | - | - | - |
| 1788618437 | 24.44° C | 64% | 1010.7 hPa | 0 mm | - | - | - |
| 1788618141 | 24.44° C | 65% | 1010.7 hPa | 0 mm | - | - | - |
| 1788617838 | 24.44° C | 66% | 1010.6 hPa | 0 mm | - | - | - |
| 1788617536 | 24.44° C | 65% | 1010.7 hPa | 0 mm | - | - | - |
| 1788617405 | 23.89° C | 67% | 1010.6 hPa | 0 mm | - | - | - |
| 1788617237 | 23.89° C | 66% | 1010.7 hPa | 0 mm | - | - | - |
| 1788616940 | 23.89° C | 66% | 1010.7 hPa | 0 mm | - | - | - |
| 1788616639 | 23.89° C | 67% | 1010.6 hPa | 0 mm | - | - | - |
| 1788616346 | 23.89° C | 67% | 1010.7 hPa | 0 mm | - | - | - |
| 1788615739 | 23.89° C | 67% | 1010.7 hPa | 0 mm | - | - | - |
| 1788615466 | 22.78° C | 72% | 1010.9 hPa | 0 mm | - | - | - |
| 1788615442 | 23.89° C | 69% | 1010.7 hPa | 0 mm | - | - | - |
| 1788615137 | 23.89° C | 69% | 1010.7 hPa | 0 mm | - | - | - |
| 1788614839 | 23.89° C | 69% | 1010.7 hPa | 0 mm | - | - | - |
| 1788614539 | 23.89° C | 69% | 1010.7 hPa | 0 mm | - | - | - |
| 1788614238 | 23.33° C | 71% | 1010.8 hPa | 0 mm | - | - | - |
| 1788613637 | 22.78° C | 72% | 1010.9 hPa | 0 mm | - | - | - |
| 1788613545 | 21.67° C | 76% | 1011.1 hPa | 0 mm | - | - | - |
| 1788613036 | 22.78° C | 72% | 1011 hPa | 0 mm | - | - | - |
* Rain latest hour (hover to see other rain measurements)
** Current wind speed in m/s (hover to see current wind gust speed)